createdAt,value
2023-03-08T00:00:02.706Z,-1.2
2023-03-08T00:05:00.888Z,-1.3
2023-03-08T00:15:01.077Z,-1.4
2023-03-08T00:20:00.846Z,-1.5
2023-03-08T00:25:03.947Z,-1.6
2023-03-08T00:30:01.148Z,-1.7
2023-03-08T00:35:00.835Z,-1.8
2023-03-08T00:45:00.897Z,-1.8
2023-03-08T00:55:01.773Z,-1.7
2023-03-08T01:00:03.601Z,-1.7
2023-03-08T01:15:00.943Z,-1.7
2023-03-08T01:25:00.564Z,-1.6
2023-03-08T01:30:00.544Z,-1.5
2023-03-08T01:40:00.776Z,-1.4
2023-03-08T01:45:00.866Z,-1.4
2023-03-08T02:00:03.646Z,-1.3
2023-03-08T02:15:00.823Z,-1.3
2023-03-08T02:30:00.590Z,-1.3
2023-03-08T02:45:01.741Z,-1.3
2023-03-08T02:55:01.911Z,-1.2
2023-03-08T03:00:02.819Z,-1.1
2023-03-08T03:05:00.905Z,-1.0
2023-03-08T03:10:00.762Z,-0.9
2023-03-08T03:15:00.878Z,-0.8
2023-03-08T03:20:00.777Z,-0.7
2023-03-08T03:25:05.912Z,-0.6
2023-03-08T03:30:01.048Z,-0.6
2023-03-08T03:35:01.649Z,-0.5
2023-03-08T03:40:00.946Z,-0.4
2023-03-08T03:45:00.933Z,-0.3
2023-03-08T03:50:02.083Z,-0.2
2023-03-08T03:55:01.008Z,-0.1
2023-03-08T04:10:00.920Z,0.1
2023-03-08T04:15:00.901Z,0.1
2023-03-08T04:25:00.934Z,0.2
2023-03-08T04:30:00.806Z,0.1
2023-03-08T04:45:00.903Z,-0.1
2023-03-08T04:50:00.817Z,-0.2
2023-03-08T04:55:01.028Z,-0.4
2023-03-08T05:00:01.139Z,-0.5
2023-03-08T05:05:00.900Z,-0.7
2023-03-08T05:10:00.909Z,-0.8
2023-03-08T05:15:00.827Z,-0.8
2023-03-08T05:30:00.855Z,-0.8
2023-03-08T05:45:00.961Z,-0.9
2023-03-08T05:50:00.984Z,-1.0
2023-03-08T05:55:00.854Z,-1.1
2023-03-08T06:00:02.873Z,-1.2
2023-03-08T06:05:00.824Z,-1.4
2023-03-08T06:10:00.897Z,-1.5
2023-03-08T06:15:00.825Z,-1.6
2023-03-08T06:25:00.890Z,-1.5
2023-03-08T06:30:01.157Z,-1.4
2023-03-08T06:35:06.968Z,-1.2
2023-03-08T06:40:00.861Z,-1.1
2023-03-08T06:45:00.862Z,-0.9
2023-03-08T06:50:00.883Z,-0.8
2023-03-08T06:55:00.951Z,-0.6
2023-03-08T07:00:02.850Z,-0.6
2023-03-08T07:05:00.841Z,-0.5
2023-03-08T07:15:00.879Z,-0.4
2023-03-08T07:20:01.113Z,-0.3
2023-03-08T07:25:01.801Z,-0.2
2023-03-08T07:30:00.869Z,-0.1
2023-03-08T07:35:01.889Z,0.1
2023-03-08T07:40:00.850Z,0.2
2023-03-08T07:45:01.745Z,0.3
2023-03-08T07:50:00.869Z,0.4
2023-03-08T07:55:00.919Z,0.5
2023-03-08T08:00:03.940Z,0.6
2023-03-08T08:15:00.999Z,0.6
2023-03-08T08:25:03.322Z,0.7
2023-03-08T08:30:01.137Z,0.8
2023-03-08T08:35:01.020Z,1.0
2023-03-08T08:40:01.155Z,1.1
2023-03-08T08:45:01.009Z,1.2
2023-03-08T09:00:00.973Z,1.1
2023-03-08T09:15:00.672Z,1.0
2023-03-08T09:20:01.967Z,0.9
2023-03-08T09:30:01.993Z,0.8
2023-03-08T09:35:01.138Z,0.9
2023-03-08T09:40:01.001Z,1.0
2023-03-08T09:45:02.410Z,1.1
2023-03-08T09:50:01.309Z,1.3
2023-03-08T09:55:02.383Z,1.5
2023-03-08T10:00:15.741Z,1.6
2023-03-08T10:25:01.733Z,2.4
2023-03-08T10:30:00.941Z,2.4
2023-03-08T10:35:01.414Z,2.6
2023-03-08T10:40:01.022Z,2.7
2023-03-08T10:45:01.069Z,2.8
2023-03-08T10:50:00.959Z,3.0
2023-03-08T10:55:01.289Z,3.3
2023-03-08T11:00:02.857Z,3.5
2023-03-08T11:05:01.189Z,3.6
2023-03-08T11:10:02.014Z,3.7
2023-03-08T11:15:01.090Z,3.8
2023-03-08T11:20:02.265Z,3.9
2023-03-08T11:25:02.154Z,4.0
2023-03-08T11:30:00.985Z,4.1
2023-03-08T11:35:01.109Z,4.3
2023-03-08T11:40:02.310Z,4.5
2023-03-08T11:45:01.805Z,4.7
2023-03-08T11:50:01.099Z,4.9
2023-03-08T11:55:01.195Z,5.0
2023-03-08T12:00:03.806Z,5.1
2023-03-08T12:05:01.531Z,5.2
2023-03-08T12:15:01.244Z,5.1
2023-03-08T12:25:08.005Z,5.2
2023-03-08T12:30:01.990Z,5.3
2023-03-08T12:35:01.129Z,5.5
2023-03-08T12:40:01.908Z,5.9
2023-03-08T12:45:01.093Z,6.1
2023-03-08T12:50:01.818Z,6.2
2023-03-08T12:55:02.150Z,6.5
2023-03-08T13:00:04.383Z,6.5
2023-03-08T13:05:01.206Z,6.3
2023-03-08T13:10:01.041Z,6.2
2023-03-08T13:15:01.614Z,6.1
2023-03-08T13:20:01.085Z,5.9
2023-03-08T13:25:01.199Z,5.7
2023-03-08T13:30:01.958Z,5.7
2023-03-08T13:40:02.558Z,5.6
2023-03-08T13:45:01.134Z,5.5
2023-03-08T13:55:01.264Z,5.7
2023-03-08T14:00:02.915Z,5.9
2023-03-08T14:05:02.254Z,6.3
2023-03-08T14:10:01.029Z,6.5
2023-03-08T14:15:01.999Z,6.7
2023-03-08T14:20:01.132Z,6.8
2023-03-08T14:30:01.132Z,6.8
2023-03-08T14:35:01.154Z,6.7
2023-03-08T14:40:01.063Z,6.6
2023-03-08T14:45:01.091Z,6.5
2023-03-08T14:50:01.732Z,6.4
2023-03-08T14:55:03.247Z,6.2
2023-03-08T15:00:03.204Z,6.0
2023-03-08T15:05:01.282Z,5.7
2023-03-08T15:10:01.803Z,5.4
2023-03-08T15:15:01.083Z,5.1
2023-03-08T15:20:01.133Z,4.9
2023-03-08T15:25:01.191Z,4.7
2023-03-08T15:30:01.917Z,4.7
2023-03-08T15:40:01.124Z,4.8
2023-03-08T15:45:01.170Z,4.9
2023-03-08T15:50:01.035Z,4.8
2023-03-08T15:55:01.079Z,4.7
2023-03-08T16:00:02.781Z,4.5
2023-03-08T16:05:01.079Z,4.3
2023-03-08T16:10:01.926Z,4.1
2023-03-08T16:15:02.015Z,3.9
2023-03-08T16:25:01.087Z,3.7
2023-03-08T16:30:01.048Z,3.7
2023-03-08T16:35:01.094Z,3.5
2023-03-08T16:40:02.012Z,3.4
2023-03-08T16:45:01.112Z,3.1
2023-03-08T16:50:01.184Z,3.0
2023-03-08T16:55:01.157Z,2.8
2023-03-08T17:00:04.860Z,2.7
2023-03-08T17:05:01.971Z,2.5
2023-03-08T17:10:01.070Z,2.3
2023-03-08T17:15:01.077Z,2.1
2023-03-08T17:20:02.041Z,2.0
2023-03-08T17:25:01.072Z,1.8
2023-03-08T17:30:02.084Z,1.7
2023-03-08T17:35:01.929Z,1.6
2023-03-08T17:40:02.255Z,1.5
2023-03-08T17:45:02.834Z,1.3
2023-03-08T17:50:01.971Z,1.2
2023-03-08T17:55:01.115Z,1.1
2023-03-08T18:00:03.672Z,1.0
2023-03-08T18:05:01.105Z,0.8
2023-03-08T18:10:01.084Z,0.7
2023-03-08T18:15:01.136Z,0.6
2023-03-08T18:20:02.203Z,0.5
2023-03-08T18:25:01.189Z,0.4
2023-03-08T18:30:01.131Z,0.3
2023-03-08T18:35:02.125Z,0.2
2023-03-08T18:40:01.174Z,0.1
2023-03-08T18:55:01.189Z,-0.1
2023-03-08T19:00:03.065Z,-0.1
2023-03-08T19:10:02.070Z,-0.2
2023-03-08T19:15:02.257Z,-0.2
2023-03-08T19:20:01.134Z,-0.3
2023-03-08T19:30:02.157Z,-0.4
2023-03-08T19:40:01.651Z,-0.5
2023-03-08T19:45:01.319Z,-0.5
2023-03-08T19:55:01.238Z,-0.6
2023-03-08T20:00:08.154Z,-0.7
2023-03-08T20:05:01.190Z,-0.8
2023-03-08T20:10:16.595Z,-0.9
2023-03-08T20:35:01.932Z,-1.2
2023-03-08T20:45:00.803Z,-1.2
2023-03-08T20:55:00.987Z,-1.3
2023-03-08T21:00:03.661Z,-1.3
2023-03-08T21:10:01.279Z,-1.4
2023-03-08T21:15:01.501Z,-1.5
2023-03-08T21:30:01.023Z,-1.6
2023-03-08T21:40:01.880Z,-1.5
2023-03-08T21:45:00.852Z,-1.5
2023-03-08T22:00:01.143Z,-1.6
2023-03-08T22:15:01.751Z,-1.6
2023-03-08T22:30:01.611Z,-1.6
2023-03-08T22:35:00.964Z,-1.5
2023-03-08T22:45:00.720Z,-1.6
2023-03-08T22:55:00.616Z,-1.7
2023-03-08T23:00:00.614Z,-1.7
2023-03-08T23:05:00.600Z,-1.8
2023-03-08T23:10:01.788Z,-1.9
2023-03-08T23:15:01.859Z,-1.9
2023-03-08T23:25:00.877Z,-2.0
2023-03-08T23:30:01.808Z,-2.0
2023-03-08T23:40:01.631Z,-2.1
2023-03-08T23:45:01.003Z,-2.1
2023-03-08T23:50:01.908Z,-2.2
